sensor_id;sensor_type;location;lat;lon;timestamp;temperature;humidity
5631;DHT22;2837;50.990;7.124;2022-11-20T06:00:54;8.20;99.90
5631;DHT22;2837;50.990;7.124;2022-11-20T06:03:20;8.20;99.90
5631;DHT22;2837;50.990;7.124;2022-11-20T06:05:46;8.10;99.90
5631;DHT22;2837;50.990;7.124;2022-11-20T06:08:12;8.00;99.90
5631;DHT22;2837;50.990;7.124;2022-11-20T06:10:37;8.10;99.90
5631;DHT22;2837;50.990;7.124;2022-11-20T06:13:03;8.00;99.90
5631;DHT22;2837;50.990;7.124;2022-11-20T06:15:31;8.00;99.90
5631;DHT22;2837;50.990;7.124;2022-11-20T06:17:57;8.00;99.90
5631;DHT22;2837;50.990;7.124;2022-11-20T06:20:24;8.00;99.90
5631;DHT22;2837;50.990;7.124;2022-11-20T06:22:49;8.10;99.90
5631;DHT22;2837;50.990;7.124;2022-11-20T06:25:15;8.00;99.90
5631;DHT22;2837;50.990;7.124;2022-11-20T06:27:40;8.00;99.90
5631;DHT22;2837;50.990;7.124;2022-11-20T06:30:06;8.00;99.90
5631;DHT22;2837;50.990;7.124;2022-11-20T06:32:33;8.00;99.90
5631;DHT22;2837;50.990;7.124;2022-11-20T06:34:58;8.10;99.90
5631;DHT22;2837;50.990;7.124;2022-11-20T06:37:24;8.10;99.90
5631;DHT22;2837;50.990;7.124;2022-11-20T06:39:49;8.00;99.90
5631;DHT22;2837;50.990;7.124;2022-11-20T06:42:15;8.10;99.90
5631;DHT22;2837;50.990;7.124;2022-11-20T06:44:40;8.00;99.90
5631;DHT22;2837;50.990;7.124;2022-11-20T06:47:06;8.00;99.90
5631;DHT22;2837;50.990;7.124;2022-11-20T06:49:31;8.00;99.90
5631;DHT22;2837;50.990;7.124;2022-11-20T06:51:57;8.10;99.90
5631;DHT22;2837;50.990;7.124;2022-11-20T06:54:22;8.00;99.90
5631;DHT22;2837;50.990;7.124;2022-11-20T06:56:48;7.90;99.90
5631;DHT22;2837;50.990;7.124;2022-11-20T06:59:14;7.90;99.90
5631;DHT22;2837;50.990;7.124;2022-11-20T07:01:39;7.90;99.90
5631;DHT22;2837;50.990;7.124;2022-11-20T07:04:05;8.00;99.90
5631;DHT22;2837;50.990;7.124;2022-11-20T07:06:31;7.90;99.90
5631;DHT22;2837;50.990;7.124;2022-11-20T07:08:56;7.90;99.90
5631;DHT22;2837;50.990;7.124;2022-11-20T07:11:22;7.70;99.90
5631;DHT22;2837;50.990;7.124;2022-11-20T07:13:48;7.80;99.90
5631;DHT22;2837;50.990;7.124;2022-11-20T07:16:13;7.90;99.90
5631;DHT22;2837;50.990;7.124;2022-11-20T07:18:39;7.70;99.90
5631;DHT22;2837;50.990;7.124;2022-11-20T07:21:06;7.60;99.90
5631;DHT22;2837;50.990;7.124;2022-11-20T07:23:32;7.70;99.90
5631;DHT22;2837;50.990;7.124;2022-11-20T07:25:58;7.70;99.90
5631;DHT22;2837;50.990;7.124;2022-11-20T07:28:27;7.60;99.90
5631;DHT22;2837;50.990;7.124;2022-11-20T07:30:53;7.70;99.90
5631;DHT22;2837;50.990;7.124;2022-11-20T07:33:19;7.70;99.90
5631;DHT22;2837;50.990;7.124;2022-11-20T07:35:45;7.80;99.90
5631;DHT22;2837;50.990;7.124;2022-11-20T07:38:10;7.80;99.90
5631;DHT22;2837;50.990;7.124;2022-11-20T07:40:36;7.80;99.90
5631;DHT22;2837;50.990;7.124;2022-11-20T07:43:01;7.80;99.90
5631;DHT22;2837;50.990;7.124;2022-11-20T07:45:27;7.90;99.90
5631;DHT22;2837;50.990;7.124;2022-11-20T07:47:52;8.00;99.90
5631;DHT22;2837;50.990;7.124;2022-11-20T07:50:19;7.90;99.90
5631;DHT22;2837;50.990;7.124;2022-11-20T07:52:45;7.90;99.90
5631;DHT22;2837;50.990;7.124;2022-11-20T07:55:11;7.80;99.90
5631;DHT22;2837;50.990;7.124;2022-11-20T07:57:37;7.80;99.90
5631;DHT22;2837;50.990;7.124;2022-11-20T08:00:04;7.90;99.90
5631;DHT22;2837;50.990;7.124;2022-11-20T08:02:30;7.90;99.90
5631;DHT22;2837;50.990;7.124;2022-11-20T08:04:55;7.90;99.90
5631;DHT22;2837;50.990;7.124;2022-11-20T08:07:21;7.80;99.90
5631;DHT22;2837;50.990;7.124;2022-11-20T08:09:47;8.00;99.90
5631;DHT22;2837;50.990;7.124;2022-11-20T08:12:18;8.10;99.90
5631;DHT22;2837;50.990;7.124;2022-11-20T08:15:04;8.00;99.90
5631;DHT22;2837;50.990;7.124;2022-11-20T08:17:30;8.00;99.90
5631;DHT22;2837;50.990;7.124;2022-11-20T08:19:55;8.00;99.90
5631;DHT22;2837;50.990;7.124;2022-11-20T08:22:21;8.00;99.90
5631;DHT22;2837;50.990;7.124;2022-11-20T08:24:47;8.10;99.90
5631;DHT22;2837;50.990;7.124;2022-11-20T08:27:13;8.10;99.90
5631;DHT22;2837;50.990;7.124;2022-11-20T08:29:38;8.10;99.90
5631;DHT22;2837;50.990;7.124;2022-11-20T08:32:04;8.30;99.90
5631;DHT22;2837;50.990;7.124;2022-11-20T08:34:30;8.30;99.90
5631;DHT22;2837;50.990;7.124;2022-11-20T08:36:55;8.30;99.90
5631;DHT22;2837;50.990;7.124;2022-11-20T08:39:21;8.40;99.90
5631;DHT22;2837;50.990;7.124;2022-11-20T08:41:46;8.30;99.90
5631;DHT22;2837;50.990;7.124;2022-11-20T08:44:12;8.30;99.90
5631;DHT22;2837;50.990;7.124;2022-11-20T08:46:40;8.30;99.90
5631;DHT22;2837;50.990;7.124;2022-11-20T08:49:11;8.20;99.90
5631;DHT22;2837;50.990;7.124;2022-11-20T08:51:38;8.30;99.90
5631;DHT22;2837;50.990;7.124;2022-11-20T08:54:04;8.30;99.90
5631;DHT22;2837;50.990;7.124;2022-11-20T08:56:30;8.30;99.90
5631;DHT22;2837;50.990;7.124;2022-11-20T08:58:55;8.30;99.90
5631;DHT22;2837;50.990;7.124;2022-11-20T09:01:22;8.40;99.90
5631;DHT22;2837;50.990;7.124;2022-11-20T09:03:48;8.50;99.90
5631;DHT22;2837;50.990;7.124;2022-11-20T09:06:15;8.60;99.90
5631;DHT22;2837;50.990;7.124;2022-11-20T09:08:40;8.50;99.90
5631;DHT22;2837;50.990;7.124;2022-11-20T09:11:06;8.60;99.90
5631;DHT22;2837;50.990;7.124;2022-11-20T09:13:33;8.60;99.90
5631;DHT22;2837;50.990;7.124;2022-11-20T09:16:02;8.70;99.90
5631;DHT22;2837;50.990;7.124;2022-11-20T09:18:28;8.70;99.90
5631;DHT22;2837;50.990;7.124;2022-11-20T09:20:58;8.70;99.90
5631;DHT22;2837;50.990;7.124;2022-11-20T09:23:24;8.80;99.90
5631;DHT22;2837;50.990;7.124;2022-11-20T09:25:50;8.80;99.90
5631;DHT22;2837;50.990;7.124;2022-11-20T09:28:16;8.70;99.90
5631;DHT22;2837;50.990;7.124;2022-11-20T09:30:43;8.70;99.90
5631;DHT22;2837;50.990;7.124;2022-11-20T09:33:09;8.80;99.90
5631;DHT22;2837;50.990;7.124;2022-11-20T09:35:36;8.80;99.90
5631;DHT22;2837;50.990;7.124;2022-11-20T09:38:06;8.70;99.90
5631;DHT22;2837;50.990;7.124;2022-11-20T09:40:32;8.70;99.90
5631;DHT22;2837;50.990;7.124;2022-11-20T09:42:59;8.70;99.90
5631;DHT22;2837;50.990;7.124;2022-11-20T09:46:09;8.70;99.90
5631;DHT22;2837;50.990;7.124;2022-11-20T09:49:07;8.70;99.90
5631;DHT22;2837;50.990;7.124;2022-11-20T09:51:58;8.70;99.90
5631;DHT22;2837;50.990;7.124;2022-11-20T09:54:42;8.60;99.90
5631;DHT22;2837;50.990;7.124;2022-11-20T09:57:11;8.60;99.90
5631;DHT22;2837;50.990;7.124;2022-11-20T09:59:54;8.60;99.90
5631;DHT22;2837;50.990;7.124;2022-11-20T10:02:35;8.80;99.90
5631;DHT22;2837;50.990;7.124;2022-11-20T10:05:09;8.80;99.90
5631;DHT22;2837;50.990;7.124;2022-11-20T10:07:44;8.80;99.90
5631;DHT22;2837;50.990;7.124;2022-11-20T10:10:21;8.90;99.90
5631;DHT22;2837;50.990;7.124;2022-11-20T10:15:55;8.90;99.90
5631;DHT22;2837;50.990;7.124;2022-11-20T10:23:49;9.00;99.90
5631;DHT22;2837;50.990;7.124;2022-11-20T10:26:39;9.00;99.90
5631;DHT22;2837;50.990;7.124;2022-11-20T10:29:09;9.10;99.90
5631;DHT22;2837;50.990;7.124;2022-11-20T10:31:36;9.20;99.90
5631;DHT22;2837;50.990;7.124;2022-11-20T10:34:16;9.20;99.90
5631;DHT22;2837;50.990;7.124;2022-11-20T10:36:55;9.20;99.90
5631;DHT22;2837;50.990;7.124;2022-11-20T10:47:52;9.30;99.90
5631;DHT22;2837;50.990;7.124;2022-11-20T10:50:21;9.30;99.90
5631;DHT22;2837;50.990;7.124;2022-11-20T10:53:08;9.30;99.90
5631;DHT22;2837;50.990;7.124;2022-11-20T10:55:43;9.30;99.90
5631;DHT22;2837;50.990;7.124;2022-11-20T10:58:14;9.30;99.90
5631;DHT22;2837;50.990;7.124;2022-11-20T11:00:42;9.30;99.90
5631;DHT22;2837;50.990;7.124;2022-11-20T11:03:27;9.30;99.90
5631;DHT22;2837;50.990;7.124;2022-11-20T11:06:07;9.40;99.90
5631;DHT22;2837;50.990;7.124;2022-11-20T11:08:40;9.30;99.90
5631;DHT22;2837;50.990;7.124;2022-11-20T11:11:24;9.30;99.90
5631;DHT22;2837;50.990;7.124;2022-11-20T11:13:50;9.30;99.90
5631;DHT22;2837;50.990;7.124;2022-11-20T11:16:26;9.30;99.90
5631;DHT22;2837;50.990;7.124;2022-11-20T11:19:03;9.30;99.90
5631;DHT22;2837;50.990;7.124;2022-11-20T11:21:29;9.30;99.90
5631;DHT22;2837;50.990;7.124;2022-11-20T11:24:04;9.40;99.90
5631;DHT22;2837;50.990;7.124;2022-11-20T11:26:30;9.30;99.90
5631;DHT22;2837;50.990;7.124;2022-11-20T11:29:00;9.30;99.90
5631;DHT22;2837;50.990;7.124;2022-11-20T11:31:31;9.30;99.90
5631;DHT22;2837;50.990;7.124;2022-11-20T11:34:13;9.30;99.90
5631;DHT22;2837;50.990;7.124;2022-11-20T11:36:40;9.30;99.90
5631;DHT22;2837;50.990;7.124;2022-11-20T11:39:11;9.30;99.90
5631;DHT22;2837;50.990;7.124;2022-11-20T11:41:38;9.30;99.90
5631;DHT22;2837;50.990;7.124;2022-11-20T11:44:20;9.30;99.90
5631;DHT22;2837;50.990;7.124;2022-11-20T11:47:09;9.30;99.90
5631;DHT22;2837;50.990;7.124;2022-11-20T11:49:36;9.30;99.90
5631;DHT22;2837;50.990;7.124;2022-11-20T11:52:15;9.30;99.90
5631;DHT22;2837;50.990;7.124;2022-11-20T11:55:01;9.30;99.90
5631;DHT22;2837;50.990;7.124;2022-11-20T12:00:16;9.30;99.90
5631;DHT22;2837;50.990;7.124;2022-11-20T12:05:37;9.40;99.90
5631;DHT22;2837;50.990;7.124;2022-11-20T12:08:21;9.40;99.90
5631;DHT22;2837;50.990;7.124;2022-11-20T12:14:01;9.30;99.90
5631;DHT22;2837;50.990;7.124;2022-11-20T12:16:33;9.30;99.90
5631;DHT22;2837;50.990;7.124;2022-11-20T12:19:00;9.30;99.90
5631;DHT22;2837;50.990;7.124;2022-11-20T12:21:34;9.30;99.90
5631;DHT22;2837;50.990;7.124;2022-11-20T12:29:56;9.30;99.90
5631;DHT22;2837;50.990;7.124;2022-11-20T12:35:07;9.20;99.90
5631;DHT22;2837;50.990;7.124;2022-11-20T12:43:48;9.30;99.90
5631;DHT22;2837;50.990;7.124;2022-11-20T12:46:49;9.30;99.90
5631;DHT22;2837;50.990;7.124;2022-11-20T12:52:11;9.40;99.90
5631;DHT22;2837;50.990;7.124;2022-11-20T12:57:40;9.30;99.90
5631;DHT22;2837;50.990;7.124;2022-11-20T13:00:20;9.30;99.90
5631;DHT22;2837;50.990;7.124;2022-11-20T13:06:17;9.40;99.90
5631;DHT22;2837;50.990;7.124;2022-11-20T13:08:53;9.40;99.90
5631;DHT22;2837;50.990;7.124;2022-11-20T13:19:54;9.50;99.90
5631;DHT22;2837;50.990;7.124;2022-11-20T13:25:10;9.60;99.90
5631;DHT22;2837;50.990;7.124;2022-11-20T13:27:35;9.60;99.90
5631;DHT22;2837;50.990;7.124;2022-11-20T13:30:17;9.50;99.90
5631;DHT22;2837;50.990;7.124;2022-11-20T13:33:36;9.50;99.90
5631;DHT22;2837;50.990;7.124;2022-11-20T13:35:41;9.50;99.90
5631;DHT22;2837;50.990;7.124;2022-11-20T13:40:37;9.50;99.90
5631;DHT22;2837;50.990;7.124;2022-11-20T13:43:34;9.60;99.90
5631;DHT22;2837;50.990;7.124;2022-11-20T13:46:05;9.60;99.90
5631;DHT22;2837;50.990;7.124;2022-11-20T13:48:34;9.60;99.90
5631;DHT22;2837;50.990;7.124;2022-11-20T13:51:10;9.50;99.90
5631;DHT22;2837;50.990;7.124;2022-11-20T14:01:56;9.50;99.90
5631;DHT22;2837;50.990;7.124;2022-11-20T14:04:35;9.60;99.90
5631;DHT22;2837;50.990;7.124;2022-11-20T14:07:05;9.60;99.90
5631;DHT22;2837;50.990;7.124;2022-11-20T14:09:33;9.50;99.90
5631;DHT22;2837;50.990;7.124;2022-11-20T14:11:59;9.50;99.90
5631;DHT22;2837;50.990;7.124;2022-11-20T14:14:27;9.40;99.90
5631;DHT22;2837;50.990;7.124;2022-11-20T14:17:05;9.50;99.90
5631;DHT22;2837;50.990;7.124;2022-11-20T14:19:31;9.40;99.90
5631;DHT22;2837;50.990;7.124;2022-11-20T14:22:20;9.40;99.90
5631;DHT22;2837;50.990;7.124;2022-11-20T14:24:47;9.40;99.90
5631;DHT22;2837;50.990;7.124;2022-11-20T14:27:20;9.50;99.90
5631;DHT22;2837;50.990;7.124;2022-11-20T14:29:49;9.50;99.90
5631;DHT22;2837;50.990;7.124;2022-11-20T14:32:28;9.40;99.90
5631;DHT22;2837;50.990;7.124;2022-11-20T14:34:54;9.40;99.90
5631;DHT22;2837;50.990;7.124;2022-11-20T14:37:23;9.50;99.90
5631;DHT22;2837;50.990;7.124;2022-11-20T14:39:52;9.50;99.90
5631;DHT22;2837;50.990;7.124;2022-11-20T14:42:23;9.40;99.90
5631;DHT22;2837;50.990;7.124;2022-11-20T14:44:50;9.40;99.90
5631;DHT22;2837;50.990;7.124;2022-11-20T14:47:23;9.50;99.90
5631;DHT22;2837;50.990;7.124;2022-11-20T14:49:51;9.50;99.90
5631;DHT22;2837;50.990;7.124;2022-11-20T14:52:19;9.50;99.90
5631;DHT22;2837;50.990;7.124;2022-11-20T14:54:47;9.50;99.90
5631;DHT22;2837;50.990;7.124;2022-11-20T14:57:42;9.60;99.90
5631;DHT22;2837;50.990;7.124;2022-11-20T15:02:45;9.60;99.90
5631;DHT22;2837;50.990;7.124;2022-11-20T15:05:12;9.60;99.90
5631;DHT22;2837;50.990;7.124;2022-11-20T15:07:41;9.60;99.90
5631;DHT22;2837;50.990;7.124;2022-11-20T15:10:13;9.60;99.90
5631;DHT22;2837;50.990;7.124;2022-11-20T15:12:54;9.50;99.90
5631;DHT22;2837;50.990;7.124;2022-11-20T15:15:39;9.50;99.90
5631;DHT22;2837;50.990;7.124;2022-11-20T15:18:14;9.40;99.90
5631;DHT22;2837;50.990;7.124;2022-11-20T15:20:41;9.50;99.90
5631;DHT22;2837;50.990;7.124;2022-11-20T15:23:12;9.50;99.90
5631;DHT22;2837;50.990;7.124;2022-11-20T15:25:39;9.40;99.90
5631;DHT22;2837;50.990;7.124;2022-11-20T15:28:23;9.50;99.90
5631;DHT22;2837;50.990;7.124;2022-11-20T15:30:52;9.50;99.90
5631;DHT22;2837;50.990;7.124;2022-11-20T15:33:19;9.40;99.90
5631;DHT22;2837;50.990;7.124;2022-11-20T15:35:45;9.50;99.90
5631;DHT22;2837;50.990;7.124;2022-11-20T15:38:11;9.60;99.90
5631;DHT22;2837;50.990;7.124;2022-11-20T15:40:36;9.50;99.90
5631;DHT22;2837;50.990;7.124;2022-11-20T15:43:02;9.60;99.90
5631;DHT22;2837;50.990;7.124;2022-11-20T15:45:51;9.60;99.90
5631;DHT22;2837;50.990;7.124;2022-11-20T15:48:19;9.60;99.90
5631;DHT22;2837;50.990;7.124;2022-11-20T15:53:20;9.60;99.90
5631;DHT22;2837;50.990;7.124;2022-11-20T15:55:45;9.60;99.90
5631;DHT22;2837;50.990;7.124;2022-11-20T15:58:11;9.50;99.90
5631;DHT22;2837;50.990;7.124;2022-11-20T16:00:36;9.50;99.90
5631;DHT22;2837;50.990;7.124;2022-11-20T16:03:02;9.50;99.90
5631;DHT22;2837;50.990;7.124;2022-11-20T16:05:28;9.50;99.90
5631;DHT22;2837;50.990;7.124;2022-11-20T16:07:54;9.50;99.90
5631;DHT22;2837;50.990;7.124;2022-11-20T16:10:19;9.50;99.90
5631;DHT22;2837;50.990;7.124;2022-11-20T16:12:45;9.50;99.90
5631;DHT22;2837;50.990;7.124;2022-11-20T16:15:29;9.50;99.90
5631;DHT22;2837;50.990;7.124;2022-11-20T16:18:11;9.50;99.90
5631;DHT22;2837;50.990;7.124;2022-11-20T16:20:38;9.40;99.90
5631;DHT22;2837;50.990;7.124;2022-11-20T16:23:04;9.40;99.90
5631;DHT22;2837;50.990;7.124;2022-11-20T16:25:30;9.30;99.90
5631;DHT22;2837;50.990;7.124;2022-11-20T16:27:55;9.30;99.90
5631;DHT22;2837;50.990;7.124;2022-11-20T16:30:21;9.30;99.90
5631;DHT22;2837;50.990;7.124;2022-11-20T16:32:46;9.30;99.90
5631;DHT22;2837;50.990;7.124;2022-11-20T16:35:12;9.40;99.90
5631;DHT22;2837;50.990;7.124;2022-11-20T16:37:37;9.30;99.90
5631;DHT22;2837;50.990;7.124;2022-11-20T16:40:04;9.30;99.90
5631;DHT22;2837;50.990;7.124;2022-11-20T16:42:35;9.40;99.90
5631;DHT22;2837;50.990;7.124;2022-11-20T16:45:01;9.40;99.90
5631;DHT22;2837;50.990;7.124;2022-11-20T16:47:27;9.40;99.90
5631;DHT22;2837;50.990;7.124;2022-11-20T16:49:53;9.40;99.90
5631;DHT22;2837;50.990;7.124;2022-11-20T16:52:18;9.40;99.90
5631;DHT22;2837;50.990;7.124;2022-11-20T16:54:44;9.40;99.90
5631;DHT22;2837;50.990;7.124;2022-11-20T16:57:09;9.40;99.90
5631;DHT22;2837;50.990;7.124;2022-11-20T16:59:35;9.30;99.90
5631;DHT22;2837;50.990;7.124;2022-11-20T17:02:00;9.40;99.90
5631;DHT22;2837;50.990;7.124;2022-11-20T17:04:26;9.40;99.90
5631;DHT22;2837;50.990;7.124;2022-11-20T17:06:51;9.40;99.90
5631;DHT22;2837;50.990;7.124;2022-11-20T17:09:17;9.40;99.90
5631;DHT22;2837;50.990;7.124;2022-11-20T17:11:42;9.40;99.90
5631;DHT22;2837;50.990;7.124;2022-11-20T17:14:10;9.40;99.90
5631;DHT22;2837;50.990;7.124;2022-11-20T17:16:36;9.40;99.90
5631;DHT22;2837;50.990;7.124;2022-11-20T17:19:02;9.40;99.90
5631;DHT22;2837;50.990;7.124;2022-11-20T17:21:33;9.40;99.90
5631;DHT22;2837;50.990;7.124;2022-11-20T17:24:01;9.50;99.90
5631;DHT22;2837;50.990;7.124;2022-11-20T17:26:27;9.40;99.90
5631;DHT22;2837;50.990;7.124;2022-11-20T17:28:58;9.30;99.90
5631;DHT22;2837;50.990;7.124;2022-11-20T17:31:25;9.30;99.90
5631;DHT22;2837;50.990;7.124;2022-11-20T17:33:51;9.30;99.90
5631;DHT22;2837;50.990;7.124;2022-11-20T17:36:18;9.30;99.90
5631;DHT22;2837;50.990;7.124;2022-11-20T17:38:44;9.30;99.90
5631;DHT22;2837;50.990;7.124;2022-11-20T17:41:15;9.30;99.90
5631;DHT22;2837;50.990;7.124;2022-11-20T17:43:41;9.30;99.90
5631;DHT22;2837;50.990;7.124;2022-11-20T17:46:10;9.30;99.90
5631;DHT22;2837;50.990;7.124;2022-11-20T17:48:37;9.30;99.90
5631;DHT22;2837;50.990;7.124;2022-11-20T17:51:04;9.20;99.90
5631;DHT22;2837;50.990;7.124;2022-11-20T17:53:35;9.20;99.90
5631;DHT22;2837;50.990;7.124;2022-11-20T17:56:01;9.10;99.90
5631;DHT22;2837;50.990;7.124;2022-11-20T17:58:45;9.20;99.90
5631;DHT22;2837;50.990;7.124;2022-11-20T18:01:11;9.20;99.90
5631;DHT22;2837;50.990;7.124;2022-11-20T18:03:36;9.10;99.90
5631;DHT22;2837;50.990;7.124;2022-11-20T18:08:34;9.20;99.90
5631;DHT22;2837;50.990;7.124;2022-11-20T18:11:02;9.20;99.90
5631;DHT22;2837;50.990;7.124;2022-11-20T18:13:33;9.30;99.90
5631;DHT22;2837;50.990;7.124;2022-11-20T18:16:18;9.40;99.90
5631;DHT22;2837;50.990;7.124;2022-11-20T18:18:44;9.40;99.90
5631;DHT22;2837;50.990;7.124;2022-11-20T18:21:09;9.20;99.90
5631;DHT22;2837;50.990;7.124;2022-11-20T18:23:35;9.30;99.90
5631;DHT22;2837;50.990;7.124;2022-11-20T18:26:00;9.20;99.90
5631;DHT22;2837;50.990;7.124;2022-11-20T18:28:26;9.20;99.90
5631;DHT22;2837;50.990;7.124;2022-11-20T18:30:51;9.30;99.90
5631;DHT22;2837;50.990;7.124;2022-11-20T18:33:17;9.30;99.90
5631;DHT22;2837;50.990;7.124;2022-11-20T18:35:43;9.30;99.90
5631;DHT22;2837;50.990;7.124;2022-11-20T18:38:08;9.30;99.90
5631;DHT22;2837;50.990;7.124;2022-11-20T18:40:35;9.30;99.90
5631;DHT22;2837;50.990;7.124;2022-11-20T18:43:01;9.20;99.90
5631;DHT22;2837;50.990;7.124;2022-11-20T18:45:45;9.30;99.90
5631;DHT22;2837;50.990;7.124;2022-11-20T18:48:10;9.20;99.90
5631;DHT22;2837;50.990;7.124;2022-11-20T18:50:36;9.10;99.90
5631;DHT22;2837;50.990;7.124;2022-11-20T18:53:01;9.10;99.90
5631;DHT22;2837;50.990;7.124;2022-11-20T18:55:27;9.20;99.90
5631;DHT22;2837;50.990;7.124;2022-11-20T18:57:52;9.30;99.90
5631;DHT22;2837;50.990;7.124;2022-11-20T19:00:19;9.30;99.90
5631;DHT22;2837;50.990;7.124;2022-11-20T19:02:45;9.40;99.90
5631;DHT22;2837;50.990;7.124;2022-11-20T19:05:12;9.30;99.90
5631;DHT22;2837;50.990;7.124;2022-11-20T19:07:38;9.40;99.90
5631;DHT22;2837;50.990;7.124;2022-11-20T19:10:04;9.50;99.90
5631;DHT22;2837;50.990;7.124;2022-11-20T19:12:30;9.50;99.90
5631;DHT22;2837;50.990;7.124;2022-11-20T19:14:56;9.50;99.90
5631;DHT22;2837;50.990;7.124;2022-11-20T19:17:22;9.50;99.90
5631;DHT22;2837;50.990;7.124;2022-11-20T19:19:48;9.50;99.90
5631;DHT22;2837;50.990;7.124;2022-11-20T19:22:14;9.50;99.90
5631;DHT22;2837;50.990;7.124;2022-11-20T19:24:40;9.50;99.90
5631;DHT22;2837;50.990;7.124;2022-11-20T19:27:06;9.50;99.90
5631;DHT22;2837;50.990;7.124;2022-11-20T19:29:31;9.50;99.90
5631;DHT22;2837;50.990;7.124;2022-11-20T19:31:57;9.60;99.90
5631;DHT22;2837;50.990;7.124;2022-11-20T19:34:23;9.60;99.90
5631;DHT22;2837;50.990;7.124;2022-11-20T19:36:50;9.70;99.90
5631;DHT22;2837;50.990;7.124;2022-11-20T19:39:15;9.70;99.90
5631;DHT22;2837;50.990;7.124;2022-11-20T19:41:41;9.70;99.90
5631;DHT22;2837;50.990;7.124;2022-11-20T19:44:12;9.70;99.90
5631;DHT22;2837;50.990;7.124;2022-11-20T19:46:40;9.80;99.90
5631;DHT22;2837;50.990;7.124;2022-11-20T19:49:07;9.80;99.90
5631;DHT22;2837;50.990;7.124;2022-11-20T19:51:35;9.80;99.90
5631;DHT22;2837;50.990;7.124;2022-11-20T19:54:02;9.80;99.90
5631;DHT22;2837;50.990;7.124;2022-11-20T19:56:29;9.80;99.90
5631;DHT22;2837;50.990;7.124;2022-11-20T19:58:55;9.80;99.90
5631;DHT22;2837;50.990;7.124;2022-11-20T20:01:23;9.80;99.90
5631;DHT22;2837;50.990;7.124;2022-11-20T20:03:50;9.90;99.90
5631;DHT22;2837;50.990;7.124;2022-11-20T20:06:22;9.90;99.90
5631;DHT22;2837;50.990;7.124;2022-11-20T20:08:54;9.90;99.90
5631;DHT22;2837;50.990;7.124;2022-11-20T20:11:21;9.90;99.90
5631;DHT22;2837;50.990;7.124;2022-11-20T20:13:47;9.90;99.90
5631;DHT22;2837;50.990;7.124;2022-11-20T20:16:17;9.90;99.90
5631;DHT22;2837;50.990;7.124;2022-11-20T20:18:44;9.90;99.90
5631;DHT22;2837;50.990;7.124;2022-11-20T20:21:12;9.90;99.90
5631;DHT22;2837;50.990;7.124;2022-11-20T20:23:38;10.00;99.90
5631;DHT22;2837;50.990;7.124;2022-11-20T20:26:06;10.00;99.90
5631;DHT22;2837;50.990;7.124;2022-11-20T20:28:32;10.00;99.90
5631;DHT22;2837;50.990;7.124;2022-11-20T20:31:08;10.00;99.90
5631;DHT22;2837;50.990;7.124;2022-11-20T20:33:35;10.00;99.90
5631;DHT22;2837;50.990;7.124;2022-11-20T20:36:01;10.00;99.90
5631;DHT22;2837;50.990;7.124;2022-11-20T20:38:27;10.00;99.90
5631;DHT22;2837;50.990;7.124;2022-11-20T20:40:52;10.00;99.90
5631;DHT22;2837;50.990;7.124;2022-11-20T20:43:18;10.00;99.90
5631;DHT22;2837;50.990;7.124;2022-11-20T20:45:45;10.00;99.90
5631;DHT22;2837;50.990;7.124;2022-11-20T20:48:11;10.00;99.90
5631;DHT22;2837;50.990;7.124;2022-11-20T20:50:37;10.00;99.90
5631;DHT22;2837;50.990;7.124;2022-11-20T20:53:03;10.00;99.90
5631;DHT22;2837;50.990;7.124;2022-11-20T20:55:28;10.00;99.90
5631;DHT22;2837;50.990;7.124;2022-11-20T20:57:54;10.10;99.90
5631;DHT22;2837;50.990;7.124;2022-11-20T21:00:20;10.00;99.90
5631;DHT22;2837;50.990;7.124;2022-11-20T21:02:45;10.00;99.90
5631;DHT22;2837;50.990;7.124;2022-11-20T21:05:11;10.00;99.90
5631;DHT22;2837;50.990;7.124;2022-11-20T21:07:36;10.00;99.90
5631;DHT22;2837;50.990;7.124;2022-11-20T21:10:22;10.00;99.90
5631;DHT22;2837;50.990;7.124;2022-11-20T21:12:48;9.90;99.90
5631;DHT22;2837;50.990;7.124;2022-11-20T21:15:13;9.90;99.90
5631;DHT22;2837;50.990;7.124;2022-11-20T21:17:39;9.90;99.90
5631;DHT22;2837;50.990;7.124;2022-11-20T21:20:11;10.00;99.90
5631;DHT22;2837;50.990;7.124;2022-11-20T21:22:56;10.00;99.90
5631;DHT22;2837;50.990;7.124;2022-11-20T21:25:21;10.00;99.90
5631;DHT22;2837;50.990;7.124;2022-11-20T21:27:47;10.00;99.90
5631;DHT22;2837;50.990;7.124;2022-11-20T21:30:12;10.00;99.90
5631;DHT22;2837;50.990;7.124;2022-11-20T21:32:38;10.00;99.90
5631;DHT22;2837;50.990;7.124;2022-11-20T21:35:04;10.00;99.90
5631;DHT22;2837;50.990;7.124;2022-11-20T21:37:30;10.00;99.90
5631;DHT22;2837;50.990;7.124;2022-11-20T21:39:55;10.00;99.90
5631;DHT22;2837;50.990;7.124;2022-11-20T21:42:21;10.00;99.90
5631;DHT22;2837;50.990;7.124;2022-11-20T21:44:46;10.00;99.90
5631;DHT22;2837;50.990;7.124;2022-11-20T21:47:12;10.00;99.90
5631;DHT22;2837;50.990;7.124;2022-11-20T21:49:38;10.00;99.90
5631;DHT22;2837;50.990;7.124;2022-11-20T21:52:04;10.00;99.90
5631;DHT22;2837;50.990;7.124;2022-11-20T21:54:29;10.00;99.90
5631;DHT22;2837;50.990;7.124;2022-11-20T21:56:56;10.00;99.90
5631;DHT22;2837;50.990;7.124;2022-11-20T21:59:21;10.00;99.90
